Terminal Aerodrome Forecast
Issued by NWS Pendleton, OR

Home | Current Version | Previous Version | Text Only | Print | Product List | Glossary On
Versions: 1 2 3 4 5 6 7 8 9 10 11 12 13 14 15 16 17 18 19 20 21 22
238
FTUS46 KPDT 132320
TAFPDT
TAF
KPDT 132320Z 1400/1424 30007KT P6SM SCT090 OVC120
     FM140200 15006KT P6SM -SHRA OVC050
     FM140900 22010KT 6SM -RA BKN025 OVC040
     FM141800 25013G20KT 6SM -RA BKN025 OVC040=

USA.gov is the U.S. government's official web portal to all federal, state and local government web resources and services.